createdAt,value
2024-03-30T00:00:14.740Z,2.70
2024-03-30T00:02:41.358Z,3.30
2024-03-30T00:05:08.348Z,2.40
2024-03-30T00:07:39.912Z,2.70
2024-03-30T00:10:06.689Z,3.10
2024-03-30T00:12:33.340Z,3.50
2024-03-30T00:14:59.908Z,2.70
2024-03-30T00:17:26.591Z,3.00
2024-03-30T00:19:53.133Z,2.50
2024-03-30T00:22:19.785Z,2.80
2024-03-30T00:24:46.341Z,2.60
2024-03-30T00:27:12.908Z,3.10
2024-03-30T00:29:39.462Z,3.60
2024-03-30T00:32:06.648Z,3.10
2024-03-30T00:34:33.402Z,3.60
2024-03-30T00:36:59.958Z,2.90
2024-03-30T00:39:26.595Z,2.50
2024-03-30T00:41:53.166Z,2.90
2024-03-30T00:44:20.000Z,2.70
2024-03-30T00:46:46.519Z,2.00
2024-03-30T00:49:13.185Z,1.50
2024-03-30T00:51:39.738Z,2.60
2024-03-30T00:54:06.349Z,1.80
2024-03-30T00:56:32.908Z,2.70
2024-03-30T00:59:01.535Z,3.10
2024-03-30T01:01:28.277Z,3.70
2024-03-30T01:03:54.843Z,2.80
2024-03-30T01:06:22.032Z,1.70
2024-03-30T01:08:48.695Z,2.60
2024-03-30T01:11:15.612Z,2.70
2024-03-30T01:13:42.542Z,2.70
2024-03-30T01:16:12.983Z,2.80
2024-03-30T01:18:40.256Z,3.60
2024-03-30T01:21:16.557Z,3.90
2024-03-30T01:23:48.690Z,3.30
2024-03-30T01:26:19.249Z,3.60
2024-03-30T01:28:47.264Z,2.80
2024-03-30T01:31:14.706Z,3.20
2024-03-30T01:33:41.524Z,3.60
2024-03-30T01:36:08.584Z,3.50
2024-03-30T01:38:35.603Z,3.10
2024-03-30T01:41:02.150Z,3.40
2024-03-30T01:43:28.831Z,2.70
2024-03-30T01:45:57.152Z,2.90
2024-03-30T01:48:24.535Z,3.30
2024-03-30T01:50:53.015Z,3.00
2024-03-30T01:53:24.020Z,2.60
2024-03-30T01:55:53.227Z,2.70
2024-03-30T01:58:25.810Z,2.80
2024-03-30T02:00:54.383Z,3.40
2024-03-30T02:03:22.631Z,2.90
2024-03-30T02:05:50.094Z,2.50
2024-03-30T02:08:18.431Z,3.00
2024-03-30T02:10:47.544Z,2.80
2024-03-30T02:13:14.311Z,2.80
2024-03-30T02:15:40.939Z,3.00
2024-03-30T02:18:07.937Z,3.10
2024-03-30T02:20:34.605Z,3.30
2024-03-30T02:23:01.176Z,2.10
2024-03-30T02:25:27.772Z,2.40
2024-03-30T02:27:54.404Z,2.80
2024-03-30T02:30:42.642Z,2.50
2024-03-30T02:33:09.496Z,2.40
2024-03-30T02:35:36.102Z,2.30
2024-03-30T02:38:02.864Z,3.00
2024-03-30T02:40:29.597Z,2.50
2024-03-30T02:42:56.167Z,2.60
2024-03-30T02:45:22.876Z,2.20
2024-03-30T02:47:49.473Z,2.50
2024-03-30T02:50:16.014Z,2.40
2024-03-30T02:52:42.578Z,2.60
2024-03-30T02:55:09.162Z,2.70
2024-03-30T02:57:35.816Z,2.70
2024-03-30T03:00:02.383Z,2.40
2024-03-30T03:02:28.927Z,3.20
2024-03-30T03:04:55.515Z,5.30
2024-03-30T03:07:22.064Z,3.00
2024-03-30T03:09:48.634Z,2.90
2024-03-30T03:12:15.186Z,2.60
2024-03-30T03:14:41.773Z,2.90
2024-03-30T03:17:08.366Z,3.20
2024-03-30T03:19:34.886Z,3.50
2024-03-30T03:22:01.484Z,3.40
2024-03-30T03:24:28.087Z,2.80
2024-03-30T03:26:54.782Z,3.50
2024-03-30T03:29:21.307Z,3.20
2024-03-30T03:31:47.945Z,3.50
2024-03-30T03:34:14.570Z,3.30
2024-03-30T03:36:42.568Z,3.00
2024-03-30T03:39:09.126Z,3.60
2024-03-30T03:41:36.024Z,3.50
2024-03-30T03:44:02.621Z,3.50
2024-03-30T03:46:29.216Z,3.90
2024-03-30T03:48:55.734Z,3.80
2024-03-30T03:51:22.334Z,3.30
2024-03-30T03:53:48.891Z,4.00
2024-03-30T03:56:15.590Z,2.70
2024-03-30T03:58:42.201Z,4.00
2024-03-30T04:01:08.835Z,3.10
2024-03-30T04:03:37.445Z,3.00
2024-03-30T04:06:10.759Z,2.90
2024-03-30T04:08:37.408Z,3.30
2024-03-30T04:11:06.289Z,3.10
2024-03-30T04:13:33.690Z,3.20
2024-03-30T04:16:07.235Z,3.60
2024-03-30T04:18:34.361Z,3.70
2024-03-30T04:21:03.448Z,3.20
2024-03-30T04:23:32.388Z,2.90
2024-03-30T04:26:12.856Z,3.40
2024-03-30T04:28:39.367Z,4.20
2024-03-30T04:31:06.949Z,3.10
2024-03-30T04:33:34.798Z,2.70
2024-03-30T04:36:03.648Z,3.70
2024-03-30T04:38:31.459Z,3.60
2024-03-30T04:40:59.524Z,3.50
2024-03-30T04:43:27.021Z,3.80
2024-03-30T04:45:53.762Z,3.50
2024-03-30T04:48:20.825Z,2.50
2024-03-30T04:50:47.642Z,2.80
2024-03-30T04:53:23.444Z,3.70
2024-03-30T04:55:51.355Z,3.70
2024-03-30T04:58:22.611Z,4.10
2024-03-30T05:00:54.491Z,5.30
2024-03-30T05:05:48.783Z,3.60
2024-03-30T05:08:15.754Z,4.10
2024-03-30T05:10:43.915Z,3.90
2024-03-30T05:13:11.146Z,3.60
2024-03-30T05:15:40.215Z,4.80
2024-03-30T05:18:08.959Z,3.80
2024-03-30T05:20:52.131Z,4.00
2024-03-30T05:23:30.750Z,3.90
2024-03-30T05:26:01.898Z,4.00
2024-03-30T05:28:30.209Z,3.80
2024-03-30T05:30:58.690Z,3.40
2024-03-30T05:33:26.972Z,3.40
2024-03-30T05:35:55.131Z,3.70
2024-03-30T05:38:22.570Z,3.90
2024-03-30T05:40:50.426Z,3.00
2024-03-30T05:43:17.759Z,4.30
2024-03-30T05:45:49.060Z,3.00
2024-03-30T05:48:15.712Z,3.40
2024-03-30T05:50:42.327Z,4.80
2024-03-30T05:53:08.947Z,4.90
2024-03-30T05:55:35.501Z,3.80
2024-03-30T05:58:05.144Z,3.40
2024-03-30T06:00:32.902Z,3.40
2024-03-30T06:02:59.601Z,3.40
2024-03-30T06:05:27.334Z,3.10
2024-03-30T06:07:53.981Z,4.30
2024-03-30T06:10:20.613Z,3.40
2024-03-30T06:12:47.184Z,3.30
2024-03-30T06:15:13.745Z,3.30
2024-03-30T06:17:40.796Z,3.40
2024-03-30T06:20:10.032Z,4.60
2024-03-30T06:22:37.681Z,3.90
2024-03-30T06:25:07.345Z,4.50
2024-03-30T06:27:35.092Z,3.90
2024-03-30T06:30:02.649Z,3.60
2024-03-30T06:32:29.376Z,3.60
2024-03-30T06:34:55.983Z,3.10
2024-03-30T06:37:22.611Z,4.10
2024-03-30T06:40:08.011Z,4.30
2024-03-30T06:42:53.392Z,4.00
2024-03-30T06:45:19.992Z,4.70
2024-03-30T06:47:46.571Z,3.30
2024-03-30T06:50:13.093Z,3.40
2024-03-30T06:52:39.727Z,3.60
2024-03-30T06:55:06.362Z,4.10
2024-03-30T06:57:32.900Z,5.00
2024-03-30T06:59:59.840Z,3.80
2024-03-30T07:02:26.601Z,4.00
2024-03-30T07:04:53.233Z,2.90
2024-03-30T07:07:19.890Z,3.20
2024-03-30T07:09:46.500Z,3.60
2024-03-30T07:12:13.382Z,4.20
2024-03-30T07:14:39.919Z,4.20
2024-03-30T07:17:14.317Z,4.20
2024-03-30T07:19:42.210Z,4.80
2024-03-30T07:22:08.822Z,3.40
2024-03-30T07:24:38.386Z,3.30
2024-03-30T07:27:05.463Z,3.10
2024-03-30T07:29:33.188Z,4.00
2024-03-30T07:32:01.873Z,4.50
2024-03-30T07:34:28.508Z,4.40
2024-03-30T07:36:55.120Z,5.60
2024-03-30T07:39:21.887Z,3.30
2024-03-30T07:41:48.559Z,4.70
2024-03-30T07:44:17.243Z,5.50
2024-03-30T07:46:43.784Z,9.40
2024-03-30T07:49:10.381Z,6.70
2024-03-30T07:51:36.974Z,5.30
2024-03-30T07:54:03.547Z,4.50
2024-03-30T07:56:30.157Z,4.30
2024-03-30T07:58:58.998Z,4.30
2024-03-30T08:01:28.326Z,4.70
2024-03-30T08:03:54.940Z,4.70
2024-03-30T08:06:21.541Z,5.20
2024-03-30T08:08:48.114Z,4.50
2024-03-30T08:11:14.757Z,3.90
2024-03-30T08:13:41.736Z,4.70
2024-03-30T08:16:08.287Z,4.90
2024-03-30T08:18:36.019Z,4.40
2024-03-30T08:21:03.950Z,4.80
2024-03-30T08:23:32.270Z,4.30
2024-03-30T08:25:58.924Z,4.80
2024-03-30T08:28:25.489Z,4.70
2024-03-30T08:30:52.110Z,5.30
2024-03-30T08:33:18.722Z,5.60
2024-03-30T08:36:03.568Z,6.40
2024-03-30T08:38:30.148Z,5.20
2024-03-30T08:40:56.687Z,8.30
2024-03-30T08:43:26.588Z,6.80
2024-03-30T08:45:54.710Z,6.60
2024-03-30T08:48:21.691Z,4.70
2024-03-30T08:50:48.542Z,5.10
2024-03-30T08:53:15.206Z,4.10
2024-03-30T08:55:41.907Z,6.20
2024-03-30T08:58:08.847Z,6.30
2024-03-30T09:00:36.216Z,4.30
2024-03-30T09:03:04.238Z,5.30
2024-03-30T09:05:31.184Z,3.80
2024-03-30T09:07:58.339Z,4.80
2024-03-30T09:10:26.786Z,3.80
2024-03-30T09:12:53.399Z,4.50
2024-03-30T09:15:22.772Z,4.50
2024-03-30T09:17:49.370Z,4.10
2024-03-30T09:20:16.234Z,4.60
2024-03-30T09:22:43.445Z,4.80
2024-03-30T09:25:16.186Z,4.40
2024-03-30T09:27:43.062Z,4.90
2024-03-30T09:30:11.517Z,4.10
2024-03-30T09:32:42.334Z,4.10
2024-03-30T09:35:09.850Z,4.20
2024-03-30T09:37:37.920Z,4.80
2024-03-30T09:40:05.663Z,3.20
2024-03-30T09:42:36.598Z,4.20
2024-03-30T09:45:04.724Z,3.60
2024-03-30T09:47:32.740Z,4.50
2024-03-30T09:50:03.232Z,3.90
2024-03-30T09:52:31.119Z,4.20
2024-03-30T09:55:01.121Z,4.20
2024-03-30T09:57:30.647Z,4.90
2024-03-30T09:59:58.111Z,4.40
2024-03-30T10:02:24.883Z,4.60
2024-03-30T10:04:51.605Z,4.20
2024-03-30T10:07:44.612Z,5.20
2024-03-30T10:10:17.187Z,4.90
2024-03-30T10:13:05.466Z,4.10
2024-03-30T10:15:43.989Z,4.50
2024-03-30T10:18:10.594Z,3.90
2024-03-30T10:20:37.202Z,4.40
2024-03-30T10:23:04.285Z,4.00
2024-03-30T10:25:32.371Z,5.00
2024-03-30T10:27:59.042Z,5.20
2024-03-30T10:30:26.706Z,4.50
2024-03-30T10:32:56.060Z,6.30
2024-03-30T10:35:23.664Z,7.10
2024-03-30T10:37:50.871Z,7.00
2024-03-30T10:40:17.531Z,12.40
2024-03-30T10:42:44.191Z,11.20
2024-03-30T10:45:11.523Z,8.10
2024-03-30T10:47:39.822Z,4.60
2024-03-30T10:50:07.891Z,5.70
2024-03-30T10:52:38.490Z,5.30
2024-03-30T10:55:06.575Z,6.20
2024-03-30T10:57:33.218Z,8.30
2024-03-30T11:00:04.401Z,8.10
2024-03-30T11:02:32.744Z,4.50
2024-03-30T11:05:01.714Z,4.20
2024-03-30T11:07:28.455Z,4.70
2024-03-30T11:09:56.803Z,5.10
2024-03-30T11:12:24.240Z,5.90
2024-03-30T11:14:51.313Z,3.90
2024-03-30T11:17:31.668Z,3.60
2024-03-30T11:20:20.064Z,3.30
2024-03-30T11:22:54.067Z,4.70
2024-03-30T11:25:23.101Z,4.10
2024-03-30T11:28:18.712Z,4.30
2024-03-30T11:31:05.412Z,4.90
2024-03-30T11:33:37.688Z,3.90
2024-03-30T11:36:16.225Z,5.30
2024-03-30T11:38:47.809Z,4.30
2024-03-30T11:41:16.874Z,4.00
2024-03-30T11:43:48.079Z,4.40
2024-03-30T11:46:15.775Z,4.30
2024-03-30T11:48:43.024Z,4.40
2024-03-30T11:51:28.937Z,5.00
2024-03-30T11:53:55.457Z,5.00
2024-03-30T11:56:22.047Z,4.60
2024-03-30T11:58:57.382Z,6.40
2024-03-30T12:01:23.914Z,4.60
2024-03-30T12:03:50.980Z,7.40
2024-03-30T12:06:22.491Z,5.30
2024-03-30T12:08:50.156Z,5.70
2024-03-30T12:11:17.071Z,4.60
2024-03-30T12:13:44.030Z,4.70
2024-03-30T12:16:10.951Z,5.60
2024-03-30T12:18:40.258Z,4.70
2024-03-30T12:21:08.643Z,8.60
2024-03-30T12:23:35.793Z,8.20
2024-03-30T12:26:02.899Z,5.30
2024-03-30T12:28:29.462Z,6.00
2024-03-30T12:30:56.238Z,5.90
2024-03-30T12:33:26.749Z,5.00
2024-03-30T12:35:53.620Z,5.00
2024-03-30T12:38:20.282Z,5.00
2024-03-30T12:40:47.597Z,5.80
2024-03-30T12:43:15.047Z,5.20
2024-03-30T12:45:45.423Z,5.70
2024-03-30T12:48:12.861Z,4.70
2024-03-30T12:50:39.491Z,5.00
2024-03-30T12:53:07.759Z,6.60
2024-03-30T12:55:35.297Z,4.60
2024-03-30T12:58:01.972Z,5.40
2024-03-30T13:00:29.080Z,5.70
2024-03-30T13:02:58.753Z,6.00
2024-03-30T13:05:35.679Z,5.10
2024-03-30T13:08:07.230Z,5.60
2024-03-30T13:10:35.823Z,4.30
2024-03-30T13:13:04.456Z,4.20
2024-03-30T13:15:32.052Z,5.10
2024-03-30T13:18:06.892Z,5.40
2024-03-30T13:20:33.450Z,5.20
2024-03-30T13:23:05.649Z,5.10
2024-03-30T13:25:32.381Z,6.20
2024-03-30T13:27:59.021Z,5.90
2024-03-30T13:30:27.012Z,4.90
2024-03-30T13:32:54.081Z,5.20
2024-03-30T13:35:20.623Z,3.70
2024-03-30T13:37:47.149Z,4.60
2024-03-30T13:40:14.025Z,3.80
2024-03-30T13:42:40.630Z,4.50
2024-03-30T13:45:07.615Z,5.00
2024-03-30T13:47:34.205Z,5.10
2024-03-30T13:50:01.195Z,4.40
2024-03-30T13:52:27.770Z,5.60
2024-03-30T13:54:54.390Z,8.00
2024-03-30T13:57:20.952Z,8.40
2024-03-30T13:59:48.259Z,5.50
2024-03-30T14:02:14.957Z,5.10
2024-03-30T14:04:41.483Z,3.90
2024-03-30T14:07:08.132Z,3.90
2024-03-30T14:09:34.757Z,5.10
2024-03-30T14:12:01.548Z,4.90
2024-03-30T14:14:28.244Z,5.00
2024-03-30T14:16:54.815Z,3.90
2024-03-30T14:19:21.392Z,4.10
2024-03-30T14:21:48.019Z,4.50
2024-03-30T14:24:14.571Z,3.50
2024-03-30T14:26:41.234Z,3.20
2024-03-30T14:29:07.842Z,4.10
2024-03-30T14:31:34.422Z,4.10
2024-03-30T14:34:00.971Z,3.60
2024-03-30T14:36:32.854Z,3.60
2024-03-30T14:39:00.702Z,5.00
2024-03-30T14:41:27.645Z,4.10
2024-03-30T14:43:55.344Z,4.50
2024-03-30T14:46:23.543Z,3.80
2024-03-30T14:48:50.934Z,4.10
2024-03-30T14:51:18.052Z,3.50
2024-03-30T14:53:47.507Z,3.80
2024-03-30T14:56:14.870Z,3.90
2024-03-30T14:58:41.908Z,4.50
2024-03-30T15:01:13.218Z,5.10
2024-03-30T15:03:46.615Z,4.30
2024-03-30T15:06:20.691Z,4.60
2024-03-30T15:08:51.934Z,6.90
2024-03-30T15:11:20.599Z,4.50
2024-03-30T15:13:47.683Z,4.50
2024-03-30T15:16:14.239Z,4.10
2024-03-30T15:18:41.997Z,4.90
2024-03-30T15:21:09.927Z,2.90
2024-03-30T15:23:39.485Z,4.30
2024-03-30T15:26:12.956Z,3.90
2024-03-30T15:28:40.580Z,5.10
2024-03-30T15:31:26.464Z,3.30
2024-03-30T15:33:58.086Z,4.90
2024-03-30T15:36:25.559Z,7.50
2024-03-30T15:38:52.481Z,4.40
2024-03-30T15:41:19.631Z,3.90
2024-03-30T15:43:46.334Z,4.90
2024-03-30T15:46:16.860Z,4.10
2024-03-30T15:48:45.393Z,3.30
2024-03-30T15:51:12.003Z,4.20
2024-03-30T15:53:38.779Z,3.80
2024-03-30T15:56:05.717Z,3.40
2024-03-30T15:58:35.938Z,3.40
2024-03-30T16:01:07.958Z,4.80
2024-03-30T16:03:41.008Z,4.20
2024-03-30T16:06:08.694Z,5.00
2024-03-30T16:08:35.310Z,4.20
2024-03-30T16:11:02.171Z,4.00
2024-03-30T16:13:30.659Z,3.80
2024-03-30T16:15:58.809Z,5.40
2024-03-30T16:18:25.818Z,7.40
2024-03-30T16:20:58.973Z,5.50
2024-03-30T16:23:26.996Z,5.20
2024-03-30T16:25:58.253Z,3.40
2024-03-30T16:28:24.984Z,4.20
2024-03-30T16:30:56.085Z,3.60
2024-03-30T16:33:22.761Z,4.40
2024-03-30T16:35:49.405Z,4.20
2024-03-30T16:38:16.226Z,5.80
2024-03-30T16:40:42.871Z,4.00
2024-03-30T16:43:09.421Z,5.20
2024-03-30T16:45:36.655Z,4.80
2024-03-30T16:48:05.376Z,5.30
2024-03-30T16:50:32.236Z,4.60
2024-03-30T16:52:58.923Z,5.30
2024-03-30T16:55:25.583Z,4.60
2024-03-30T16:57:53.897Z,4.60
2024-03-30T17:00:22.241Z,3.90
2024-03-30T17:02:48.767Z,4.70
2024-03-30T17:05:15.592Z,6.00
2024-03-30T17:07:43.144Z,4.20
2024-03-30T17:10:09.782Z,5.70
2024-03-30T17:12:40.213Z,3.80
2024-03-30T17:15:07.587Z,4.20
2024-03-30T17:17:34.166Z,4.70
2024-03-30T17:20:00.803Z,4.30
2024-03-30T17:22:27.678Z,5.00
2024-03-30T17:24:55.024Z,4.40
2024-03-30T17:27:21.643Z,4.30
2024-03-30T17:29:48.283Z,4.40
2024-03-30T17:32:14.852Z,4.00
2024-03-30T17:34:53.330Z,5.70
2024-03-30T17:37:23.562Z,4.10
2024-03-30T17:39:50.450Z,3.60
2024-03-30T17:42:16.999Z,4.40
2024-03-30T17:44:48.376Z,5.10
2024-03-30T17:47:15.037Z,5.10
2024-03-30T17:49:43.543Z,4.70
2024-03-30T17:52:10.364Z,4.70
2024-03-30T17:54:39.437Z,4.80
2024-03-30T17:57:06.367Z,5.30
2024-03-30T17:59:32.955Z,5.10
2024-03-30T18:01:59.613Z,3.90
2024-03-30T18:04:29.772Z,5.30
2024-03-30T18:06:56.367Z,5.00
2024-03-30T18:09:22.999Z,5.90
2024-03-30T18:11:49.543Z,7.70
2024-03-30T18:14:17.243Z,5.60
2024-03-30T18:16:44.039Z,9.30
2024-03-30T18:19:10.719Z,7.70
2024-03-30T18:21:37.271Z,5.20
2024-03-30T18:24:04.111Z,6.70
2024-03-30T18:26:33.985Z,6.30
2024-03-30T18:29:00.653Z,4.80
2024-03-30T18:31:27.320Z,5.00
2024-03-30T18:33:53.923Z,4.40
2024-03-30T18:36:20.546Z,4.40
2024-03-30T18:38:49.366Z,4.40
2024-03-30T18:41:16.577Z,3.80
2024-03-30T18:43:43.544Z,4.20
2024-03-30T18:46:11.434Z,6.00
2024-03-30T18:48:38.007Z,5.30
2024-03-30T18:51:12.115Z,7.70
2024-03-30T18:53:39.262Z,4.70
2024-03-30T18:56:10.108Z,4.50
2024-03-30T18:58:36.945Z,4.60
2024-03-30T19:01:09.045Z,5.20
2024-03-30T19:03:38.843Z,4.10
2024-03-30T19:06:05.851Z,4.20
2024-03-30T19:08:32.499Z,3.20
2024-03-30T19:11:00.611Z,3.90
2024-03-30T19:13:27.226Z,3.90
2024-03-30T19:15:54.839Z,4.30
2024-03-30T19:18:21.459Z,5.00
2024-03-30T19:20:48.260Z,4.40
2024-03-30T19:23:14.878Z,7.20
2024-03-30T19:25:41.947Z,12.10
2024-03-30T19:28:08.589Z,5.60
2024-03-30T19:30:35.247Z,6.90
2024-03-30T19:33:02.270Z,5.20
2024-03-30T19:35:28.852Z,4.80
2024-03-30T19:37:55.363Z,4.70
2024-03-30T19:40:25.068Z,4.40
2024-03-30T19:42:51.761Z,5.00
2024-03-30T19:45:18.662Z,6.90
2024-03-30T19:47:45.250Z,6.10
2024-03-30T19:50:13.091Z,4.50
2024-03-30T19:52:39.718Z,6.20
2024-03-30T19:55:06.578Z,6.60
2024-03-30T19:57:35.251Z,4.40
2024-03-30T20:00:04.479Z,5.80
2024-03-30T20:02:31.919Z,5.70
2024-03-30T20:04:59.410Z,7.60
2024-03-30T20:07:25.959Z,4.80
2024-03-30T20:09:52.835Z,7.80
2024-03-30T20:12:19.436Z,5.00
2024-03-30T20:14:46.427Z,4.60
2024-03-30T20:17:12.992Z,6.40
2024-03-30T20:19:39.540Z,6.20
2024-03-30T20:22:06.071Z,6.40
2024-03-30T20:24:32.686Z,5.00
2024-03-30T20:26:59.384Z,5.60
2024-03-30T20:29:26.049Z,4.90
2024-03-30T20:31:52.626Z,5.50
2024-03-30T20:34:19.271Z,5.70
2024-03-30T20:36:45.791Z,5.30
2024-03-30T20:39:12.319Z,5.00
2024-03-30T20:41:38.999Z,4.50
2024-03-30T20:44:05.578Z,4.40
2024-03-30T20:46:32.203Z,6.20
2024-03-30T20:48:58.731Z,4.80
2024-03-30T20:51:25.462Z,4.70
2024-03-30T20:53:52.015Z,4.80
2024-03-30T20:56:18.602Z,6.50
2024-03-30T20:58:45.145Z,5.50
2024-03-30T21:01:11.774Z,3.50
2024-03-30T21:03:38.420Z,7.00
2024-03-30T21:06:06.721Z,5.20
2024-03-30T21:08:33.884Z,4.50
2024-03-30T21:11:01.106Z,3.90
2024-03-30T21:13:27.841Z,5.60
2024-03-30T21:16:03.409Z,3.80
2024-03-30T21:18:31.050Z,6.50
2024-03-30T21:21:01.929Z,4.60
2024-03-30T21:23:29.040Z,5.20
2024-03-30T21:26:06.362Z,5.60
2024-03-30T21:31:01.371Z,4.00
2024-03-30T21:33:28.024Z,5.00
2024-03-30T21:35:55.654Z,12.70
2024-03-30T21:38:23.095Z,13.10
2024-03-30T21:40:50.345Z,8.50
2024-03-30T21:43:17.074Z,20.70
2024-03-30T21:46:01.195Z,8.40
2024-03-30T21:48:27.989Z,5.20
2024-03-30T21:50:58.556Z,4.90
2024-03-30T21:53:25.459Z,4.70
2024-03-30T21:55:55.434Z,5.70
2024-03-30T21:58:22.876Z,5.60
2024-03-30T22:00:50.178Z,4.60
2024-03-30T22:03:16.878Z,6.00
2024-03-30T22:05:44.480Z,5.50
2024-03-30T22:08:11.131Z,5.80
2024-03-30T22:10:39.060Z,4.90
2024-03-30T22:13:06.798Z,6.00
2024-03-30T22:15:34.340Z,3.80
2024-03-30T22:18:03.039Z,5.10
2024-03-30T22:20:29.934Z,5.00
2024-03-30T22:22:56.775Z,4.00
2024-03-30T22:25:26.124Z,5.70
2024-03-30T22:27:53.579Z,4.10
2024-03-30T22:30:21.444Z,4.50
2024-03-30T22:32:48.479Z,4.40
2024-03-30T22:35:15.269Z,4.50
2024-03-30T22:37:41.987Z,4.40
2024-03-30T22:40:09.791Z,4.80
2024-03-30T22:42:36.382Z,4.80
2024-03-30T22:45:03.122Z,4.70
2024-03-30T22:47:29.897Z,4.60
2024-03-30T22:49:56.493Z,7.80
2024-03-30T22:52:23.051Z,5.10
2024-03-30T22:54:49.611Z,4.50
2024-03-30T22:57:16.351Z,4.30
2024-03-30T22:59:42.974Z,5.10
2024-03-30T23:02:09.502Z,4.60
2024-03-30T23:04:39.771Z,4.50
2024-03-30T23:07:07.043Z,4.20
2024-03-30T23:09:33.735Z,5.80
2024-03-30T23:12:00.808Z,5.00
2024-03-30T23:14:31.426Z,3.90
2024-03-30T23:16:58.339Z,3.20
2024-03-30T23:19:24.955Z,4.40
2024-03-30T23:21:54.065Z,4.90
2024-03-30T23:24:20.682Z,4.40
2024-03-30T23:26:47.327Z,4.50
2024-03-30T23:29:15.502Z,4.20
2024-03-30T23:31:42.458Z,4.20
2024-03-30T23:34:09.984Z,5.70
2024-03-30T23:36:36.679Z,3.60
2024-03-30T23:39:03.826Z,4.30
2024-03-30T23:41:30.461Z,3.90
2024-03-30T23:43:57.089Z,3.90
2024-03-30T23:46:23.800Z,4.10
2024-03-30T23:48:50.419Z,3.40
2024-03-30T23:51:17.037Z,3.90
2024-03-30T23:53:43.599Z,4.30
2024-03-30T23:56:10.185Z,4.20
2024-03-30T23:58:36.807Z,4.40
